createdAt,value
2022-11-01T00:02:07.289Z,13.75
2022-11-01T00:04:35.232Z,13.75
2022-11-01T00:07:03.557Z,13.73
2022-11-01T00:09:31.530Z,13.74
2022-11-01T00:11:59.635Z,13.73
2022-11-01T00:14:27.696Z,13.74
2022-11-01T00:16:55.812Z,13.75
2022-11-01T00:19:23.823Z,13.77
2022-11-01T00:21:51.704Z,13.78
2022-11-01T00:24:19.608Z,13.78
2022-11-01T00:29:20.273Z,13.76
2022-11-01T00:31:48.514Z,13.76
2022-11-01T00:34:17.081Z,13.76
2022-11-01T00:36:45.024Z,13.75
2022-11-01T00:39:14.668Z,13.74
2022-11-01T00:41:42.860Z,13.72
2022-11-01T00:44:10.810Z,13.69
2022-11-01T00:46:38.835Z,13.66
2022-11-01T00:49:06.719Z,13.63
2022-11-01T00:51:34.599Z,13.63
2022-11-01T00:54:02.496Z,13.64
2022-11-01T00:56:30.369Z,13.65
2022-11-01T00:58:58.223Z,13.66
2022-11-01T01:01:26.217Z,13.67
2022-11-01T01:03:54.193Z,13.68
2022-11-01T01:06:22.051Z,13.67
2022-11-01T01:08:49.896Z,13.65
2022-11-01T01:11:17.783Z,13.65
2022-11-01T01:13:45.657Z,13.64
2022-11-01T01:16:13.873Z,13.65
2022-11-01T01:18:41.839Z,13.65
2022-11-01T01:21:09.758Z,13.65
2022-11-01T01:23:37.699Z,13.66
2022-11-01T01:26:08.114Z,13.68
2022-11-01T01:28:41.808Z,13.68
2022-11-01T01:31:14.051Z,13.67
2022-11-01T01:33:42.188Z,13.67
2022-11-01T01:36:10.242Z,13.66
2022-11-01T01:38:38.368Z,13.67
2022-11-01T01:41:25.019Z,13.67
2022-11-01T01:43:53.055Z,13.66
2022-11-01T01:46:21.673Z,13.68
2022-11-01T01:48:58.354Z,13.70
2022-11-01T01:51:28.749Z,13.70
2022-11-01T01:53:58.389Z,13.71
2022-11-01T01:56:35.493Z,13.71
2022-11-01T01:59:10.978Z,13.71
2022-11-01T02:01:40.557Z,13.71
2022-11-01T02:04:27.335Z,13.71
2022-11-01T02:06:55.307Z,13.69
2022-11-01T02:09:24.948Z,13.70
2022-11-01T02:11:54.725Z,13.71
2022-11-01T02:14:24.762Z,13.71
2022-11-01T02:16:57.123Z,13.72
2022-11-01T02:19:49.620Z,13.72
2022-11-01T02:22:21.606Z,13.68
2022-11-01T02:25:17.176Z,13.68
2022-11-01T02:28:22.295Z,13.65
2022-11-01T02:31:25.988Z,13.59
2022-11-01T02:34:08.031Z,13.56
2022-11-01T02:36:47.773Z,13.55
2022-11-01T02:39:23.261Z,13.56
2022-11-01T02:42:06.369Z,13.58
2022-11-01T02:44:39.343Z,13.59
2022-11-01T02:47:09.129Z,13.60
2022-11-01T02:49:41.499Z,13.62
2022-11-01T02:52:13.755Z,13.64
2022-11-01T02:54:49.511Z,13.65
2022-11-01T02:57:17.799Z,13.66
2022-11-01T02:59:48.444Z,13.68
2022-11-01T03:02:42.405Z,13.70
2022-11-01T03:05:19.989Z,13.69
2022-11-01T03:08:11.062Z,13.67
2022-11-01T03:11:04.005Z,13.65
2022-11-01T03:13:34.814Z,13.63
2022-11-01T03:16:15.627Z,13.63
2022-11-01T03:18:54.064Z,13.64
2022-11-01T03:21:26.688Z,13.64
2022-11-01T03:24:03.356Z,13.67
2022-11-01T03:26:35.206Z,13.68
2022-11-01T03:29:08.447Z,13.68
2022-11-01T03:31:39.659Z,13.67
2022-11-01T03:34:14.734Z,13.69
2022-11-01T03:36:49.696Z,13.71
2022-11-01T03:39:27.086Z,13.72
2022-11-01T03:42:02.008Z,13.72
2022-11-01T03:44:41.325Z,13.71
2022-11-01T03:47:09.930Z,13.70
2022-11-01T03:49:37.826Z,13.70
2022-11-01T03:52:05.716Z,13.72
2022-11-01T03:54:33.751Z,13.73
2022-11-01T03:57:01.722Z,13.73
2022-11-01T03:59:29.753Z,13.73
2022-11-01T04:01:57.794Z,13.73
2022-11-01T04:04:25.803Z,13.73
2022-11-01T04:06:53.733Z,13.72
2022-11-01T04:09:21.738Z,13.70
2022-11-01T04:11:49.630Z,13.67
2022-11-01T04:14:36.020Z,13.65
2022-11-01T04:17:22.254Z,13.63
2022-11-01T04:20:08.398Z,13.63
2022-11-01T04:22:39.470Z,13.62
2022-11-01T04:25:07.692Z,13.64
2022-11-01T04:27:35.599Z,13.66
2022-11-01T04:30:03.795Z,13.68
2022-11-01T04:32:31.623Z,13.70
2022-11-01T04:34:59.549Z,13.71
2022-11-01T04:37:27.479Z,13.72
2022-11-01T04:39:55.312Z,13.73
2022-11-01T04:42:23.429Z,13.75
2022-11-01T04:44:51.382Z,13.75
2022-11-01T04:47:19.382Z,13.75
2022-11-01T04:49:47.448Z,13.77
2022-11-01T04:52:15.388Z,13.78
2022-11-01T04:54:43.611Z,13.77
2022-11-01T04:57:24.587Z,13.76
2022-11-01T04:59:53.871Z,13.74
2022-11-01T05:02:23.701Z,13.76
2022-11-01T05:04:51.573Z,13.76
2022-11-01T05:07:19.484Z,13.77
2022-11-01T05:09:47.606Z,13.78
2022-11-01T05:12:15.591Z,13.79
2022-11-01T05:14:43.453Z,13.79
2022-11-01T05:17:11.809Z,13.79
2022-11-01T05:19:39.692Z,13.80
2022-11-01T05:22:07.581Z,13.80
2022-11-01T05:24:35.535Z,13.80
2022-11-01T05:27:03.766Z,13.80
2022-11-01T05:29:33.318Z,13.81
2022-11-01T05:32:01.794Z,13.81
2022-11-01T05:34:29.690Z,13.81
2022-11-01T05:36:57.627Z,13.80
2022-11-01T05:39:25.495Z,13.80
2022-11-01T05:41:55.582Z,13.81
2022-11-01T05:44:26.271Z,13.79
2022-11-01T05:46:54.225Z,13.77
2022-11-01T05:49:22.756Z,13.77
2022-11-01T05:51:50.939Z,13.78
2022-11-01T05:54:18.854Z,13.77
2022-11-01T05:56:46.781Z,13.78
2022-11-01T05:59:14.985Z,13.79
2022-11-01T06:01:42.991Z,13.77
2022-11-01T06:04:10.889Z,13.75
2022-11-01T06:06:38.900Z,13.73
2022-11-01T06:09:06.773Z,13.73
2022-11-01T06:11:37.871Z,13.73
2022-11-01T06:14:10.642Z,13.73
2022-11-01T06:16:38.508Z,13.73
2022-11-01T06:19:06.407Z,13.73
2022-11-01T06:21:34.295Z,13.73
2022-11-01T06:24:02.214Z,13.73
2022-11-01T06:26:30.690Z,13.72
2022-11-01T06:29:02.397Z,13.74
2022-11-01T06:31:30.829Z,13.72
2022-11-01T06:33:58.729Z,13.70
2022-11-01T06:36:26.598Z,13.70
2022-11-01T06:38:54.578Z,13.68
2022-11-01T06:41:22.448Z,13.67
2022-11-01T06:43:50.398Z,13.66
2022-11-01T06:46:18.458Z,13.67
2022-11-01T06:48:49.138Z,13.67
2022-11-01T06:51:17.050Z,13.66
2022-11-01T06:53:44.959Z,13.65
2022-11-01T06:56:12.787Z,13.65
2022-11-01T06:58:40.654Z,13.64
2022-11-01T07:01:08.694Z,13.63
2022-11-01T07:03:37.202Z,13.63
2022-11-01T07:06:05.268Z,13.61
2022-11-01T07:08:33.433Z,13.61
2022-11-01T07:11:01.733Z,13.61
2022-11-01T07:13:33.947Z,13.61
2022-11-01T07:16:02.233Z,13.62
2022-11-01T07:18:30.718Z,13.60
2022-11-01T07:21:01.794Z,13.61
2022-11-01T07:23:30.336Z,13.60
2022-11-01T07:25:58.396Z,13.59
2022-11-01T07:28:26.492Z,13.56
2022-11-01T07:30:55.967Z,13.54
2022-11-01T07:33:23.828Z,13.54
2022-11-01T07:35:52.694Z,13.52
2022-11-01T07:38:20.721Z,13.51
2022-11-01T07:40:49.949Z,13.50
2022-11-01T07:43:18.744Z,13.51
2022-11-01T07:45:47.215Z,13.53
2022-11-01T07:48:17.767Z,13.53
2022-11-01T07:50:46.282Z,13.53
2022-11-01T07:53:19.404Z,13.50
2022-11-01T07:55:47.792Z,13.50
2022-11-01T07:58:16.365Z,13.52
2022-11-01T08:00:45.220Z,13.52
2022-11-01T08:03:15.573Z,13.50
2022-11-01T08:05:44.625Z,13.52
2022-11-01T08:08:13.855Z,13.53
2022-11-01T08:10:45.075Z,13.53
2022-11-01T08:13:13.092Z,13.55
2022-11-01T08:15:41.172Z,13.53
2022-11-01T08:18:09.312Z,13.53
2022-11-01T08:20:37.364Z,13.55
2022-11-01T08:23:05.796Z,13.53
2022-11-01T08:25:35.117Z,13.47
2022-11-01T08:28:06.288Z,13.43
2022-11-01T08:30:34.863Z,13.39
2022-11-01T08:33:04.977Z,13.36
2022-11-01T08:35:34.091Z,13.30
2022-11-01T08:38:05.523Z,13.32
2022-11-01T08:40:34.012Z,13.28
2022-11-01T08:43:02.418Z,13.24
2022-11-01T08:45:30.710Z,13.26
2022-11-01T08:48:05.342Z,13.25
2022-11-01T08:50:34.378Z,13.23
2022-11-01T08:53:06.669Z,13.21
2022-11-01T08:55:37.939Z,13.20
2022-11-01T08:58:07.266Z,13.21
2022-11-01T09:00:35.977Z,13.22
2022-11-01T09:03:04.581Z,13.21
2022-11-01T09:05:32.543Z,13.24
2022-11-01T09:08:01.536Z,13.25
2022-11-01T09:10:31.051Z,13.27
2022-11-01T09:13:00.792Z,13.30
2022-11-01T09:15:29.548Z,13.32
2022-11-01T09:17:57.485Z,13.31
2022-11-01T09:20:26.618Z,13.29
2022-11-01T09:22:54.532Z,13.29
2022-11-01T09:25:22.632Z,13.26
2022-11-01T09:27:50.791Z,13.24
2022-11-01T09:30:19.210Z,13.28
2022-11-01T09:32:47.366Z,13.30
2022-11-01T09:35:15.640Z,13.30
2022-11-01T09:37:43.975Z,13.32
2022-11-01T09:40:14.760Z,13.35
2022-11-01T09:42:44.592Z,13.38
2022-11-01T09:45:20.640Z,13.37
2022-11-01T09:47:53.616Z,13.34
2022-11-01T09:50:34.400Z,13.32
2022-11-01T09:53:13.995Z,13.28
2022-11-01T09:55:57.014Z,13.27
2022-11-01T09:58:39.649Z,13.25
2022-11-01T10:01:28.966Z,13.27
2022-11-01T10:04:15.306Z,13.30
2022-11-01T10:06:52.094Z,13.34
2022-11-01T10:09:29.644Z,13.37
2022-11-01T10:12:16.471Z,13.39
2022-11-01T10:15:07.264Z,13.42
2022-11-01T10:17:51.865Z,13.45
2022-11-01T10:20:28.576Z,13.48
2022-11-01T10:22:57.971Z,13.51
2022-11-01T10:25:37.895Z,13.54
2022-11-01T10:28:16.108Z,13.58
2022-11-01T10:30:53.868Z,13.60
2022-11-01T10:33:34.048Z,13.64
2022-11-01T10:36:06.424Z,13.65
2022-11-01T10:39:16.611Z,13.67
2022-11-01T10:41:43.505Z,13.65
2022-11-01T10:44:16.773Z,13.65
2022-11-01T10:46:48.901Z,13.66
2022-11-01T10:50:06.169Z,13.67
2022-11-01T10:52:42.696Z,13.65
2022-11-01T10:55:20.744Z,13.66
2022-11-01T10:57:56.513Z,13.65
2022-11-01T11:00:24.452Z,13.68
2022-11-01T11:02:55.611Z,13.71
2022-11-01T11:05:25.557Z,13.69
2022-11-01T11:07:56.087Z,13.72
2022-11-01T11:10:29.267Z,13.74
2022-11-01T11:13:03.507Z,13.76
2022-11-01T11:15:50.181Z,13.78
2022-11-01T11:18:39.246Z,13.81
2022-11-01T11:21:12.777Z,13.81
2022-11-01T11:23:44.681Z,13.83
2022-11-01T11:26:16.960Z,13.84
2022-11-01T11:28:57.282Z,13.83
2022-11-01T11:31:30.277Z,13.82
2022-11-01T11:34:13.154Z,13.83
2022-11-01T11:36:44.818Z,13.82
2022-11-01T11:39:37.799Z,13.83
2022-11-01T11:42:20.292Z,13.79
2022-11-01T11:44:53.867Z,13.78
2022-11-01T11:47:28.336Z,13.79
2022-11-01T11:49:58.497Z,13.78
2022-11-01T11:52:37.806Z,13.75
2022-11-01T11:55:26.248Z,13.68
2022-11-01T11:57:55.480Z,13.59
2022-11-01T12:00:29.733Z,13.60
2022-11-01T12:03:04.252Z,13.61
2022-11-01T12:05:34.091Z,13.59
2022-11-01T12:08:02.143Z,13.57
2022-11-01T12:10:34.402Z,13.59
2022-11-01T12:13:04.910Z,13.61
2022-11-01T12:15:38.441Z,13.63
2022-11-01T12:18:16.684Z,13.62
2022-11-01T12:20:51.291Z,13.61
2022-11-01T12:23:36.666Z,13.62
2022-11-01T12:26:13.960Z,13.57
2022-11-01T12:29:06.694Z,13.51
2022-11-01T12:31:35.507Z,13.44
2022-11-01T12:34:31.296Z,13.43
2022-11-01T12:37:03.665Z,13.37
2022-11-01T12:39:54.631Z,13.34
2022-11-01T12:42:35.414Z,13.35
2022-11-01T12:45:10.833Z,13.38
2022-11-01T12:48:13.968Z,13.38
2022-11-01T12:51:12.320Z,13.36
2022-11-01T12:54:03.182Z,13.35
2022-11-01T12:56:31.069Z,13.35
2022-11-01T12:58:59.097Z,13.40
2022-11-01T13:01:48.833Z,13.45
2022-11-01T13:04:30.457Z,13.42
2022-11-01T13:07:32.650Z,13.37
2022-11-01T13:10:15.273Z,13.31
2022-11-01T13:12:57.603Z,13.28
2022-11-01T13:15:52.713Z,13.27
2022-11-01T13:18:33.625Z,13.26
2022-11-01T13:21:25.656Z,13.28
2022-11-01T13:23:56.468Z,13.27
2022-11-01T13:26:30.794Z,13.29
2022-11-01T13:29:14.876Z,13.28
2022-11-01T13:31:53.248Z,13.28
2022-11-01T13:34:30.655Z,13.29
2022-11-01T13:37:13.585Z,13.32
2022-11-01T13:40:03.367Z,13.37
2022-11-01T13:42:38.341Z,13.39
2022-11-01T13:45:31.062Z,13.41
2022-11-01T13:48:26.876Z,13.40
2022-11-01T13:50:57.424Z,13.35
2022-11-01T13:53:35.480Z,13.33
2022-11-01T13:56:17.495Z,13.33
2022-11-01T13:58:45.486Z,13.33
2022-11-01T14:01:42.206Z,13.35
2022-11-01T14:04:21.930Z,13.34
2022-11-01T14:07:05.151Z,13.35
2022-11-01T14:09:43.376Z,13.36
2022-11-01T14:12:30.358Z,13.37
2022-11-01T14:15:19.382Z,13.37
2022-11-01T14:17:55.297Z,13.35
2022-11-01T14:20:25.971Z,13.34
2022-11-01T14:22:55.507Z,13.35
2022-11-01T14:25:23.440Z,13.38
2022-11-01T14:28:17.180Z,13.38
2022-11-01T14:30:49.476Z,13.36
2022-11-01T14:33:20.842Z,13.36
2022-11-01T14:35:57.843Z,13.35
2022-11-01T14:38:37.057Z,13.34
2022-11-01T14:41:07.185Z,13.32
2022-11-01T14:43:49.189Z,13.32
2022-11-01T14:46:24.525Z,13.31
2022-11-01T14:49:00.611Z,13.29
2022-11-01T14:51:33.034Z,13.27
2022-11-01T14:54:13.909Z,13.27
2022-11-01T14:56:50.305Z,13.26
2022-11-01T14:59:26.692Z,13.26
2022-11-01T15:02:07.151Z,13.29
2022-11-01T15:04:44.298Z,13.30
2022-11-01T15:07:36.984Z,13.30
2022-11-01T15:10:09.730Z,13.24
2022-11-01T15:12:51.756Z,13.25
2022-11-01T15:15:24.122Z,13.22
2022-11-01T15:18:06.341Z,13.18
2022-11-01T15:21:01.125Z,13.09
2022-11-01T15:23:38.170Z,13.06
2022-11-01T15:26:13.164Z,13.04
2022-11-01T15:28:45.679Z,13.03
2022-11-01T15:31:13.724Z,13.03
2022-11-01T15:34:02.480Z,13.05
2022-11-01T15:36:33.813Z,13.04
2022-11-01T15:39:03.905Z,13.07
2022-11-01T15:41:34.443Z,13.07
2022-11-01T15:44:06.376Z,13.07
2022-11-01T15:46:40.709Z,13.06
2022-11-01T15:49:28.357Z,13.03
2022-11-01T15:52:20.411Z,12.96
2022-11-01T15:54:51.221Z,12.96
2022-11-01T15:57:48.157Z,12.96
2022-11-01T16:00:20.305Z,12.91
2022-11-01T16:02:55.071Z,12.92
2022-11-01T16:05:27.641Z,12.91
2022-11-01T16:07:56.433Z,12.88
2022-11-01T16:10:27.783Z,12.87
2022-11-01T16:12:56.952Z,12.86
2022-11-01T16:15:32.158Z,12.85
2022-11-01T16:18:02.906Z,12.86
2022-11-01T16:20:43.349Z,12.87
2022-11-01T16:23:14.486Z,12.89
2022-11-01T16:25:42.350Z,12.91
2022-11-01T16:28:10.156Z,12.96
2022-11-01T16:30:46.303Z,12.96
2022-11-01T16:33:17.563Z,12.97
2022-11-01T16:35:47.350Z,12.99
2022-11-01T16:38:26.940Z,13.01
2022-11-01T16:41:00.663Z,13.00
2022-11-01T16:43:31.895Z,13.01
2022-11-01T16:45:59.971Z,13.01
2022-11-01T16:48:31.503Z,13.03
2022-11-01T16:51:00.826Z,13.05
2022-11-01T16:53:30.537Z,13.08
2022-11-01T16:56:36.117Z,13.14
2022-11-01T16:59:08.435Z,13.13
2022-11-01T17:01:38.233Z,13.16
2022-11-01T17:04:06.333Z,13.21
2022-11-01T17:06:39.006Z,13.26
2022-11-01T17:09:13.195Z,13.30
2022-11-01T17:11:46.379Z,13.30
2022-11-01T17:14:16.102Z,13.29
2022-11-01T17:16:47.681Z,13.31
2022-11-01T17:19:24.837Z,13.30
2022-11-01T17:21:54.960Z,13.31
2022-11-01T17:24:27.342Z,13.34
2022-11-01T17:27:00.273Z,13.38
2022-11-01T17:29:29.865Z,13.39
2022-11-01T17:31:59.030Z,13.40
2022-11-01T17:34:29.076Z,13.42
2022-11-01T17:36:57.635Z,13.42
2022-11-01T17:39:28.910Z,13.42
2022-11-01T17:41:57.934Z,13.42
2022-11-01T17:44:26.157Z,13.43
2022-11-01T17:46:54.195Z,13.43
2022-11-01T17:49:24.385Z,13.42
2022-11-01T17:51:54.911Z,13.41
2022-11-01T17:54:23.572Z,13.41
2022-11-01T17:56:51.660Z,13.41
2022-11-01T17:59:19.732Z,13.42
2022-11-01T18:01:47.918Z,13.42
2022-11-01T18:04:16.117Z,13.45
2022-11-01T18:06:44.185Z,13.47
2022-11-01T18:09:25.364Z,13.49
2022-11-01T18:12:10.104Z,13.48
2022-11-01T18:17:54.131Z,13.48
2022-11-01T18:20:40.223Z,13.46
2022-11-01T18:23:14.870Z,13.44
2022-11-01T18:25:50.764Z,13.45
2022-11-01T18:28:25.328Z,13.46
2022-11-01T18:30:58.947Z,13.47
2022-11-01T18:33:35.335Z,13.47
2022-11-01T18:36:07.027Z,13.47
2022-11-01T18:38:50.407Z,13.47
2022-11-01T18:41:22.419Z,13.47
2022-11-01T18:43:54.291Z,13.48
2022-11-01T18:46:31.300Z,13.49
2022-11-01T18:49:02.059Z,13.50
2022-11-01T18:51:37.134Z,13.52
2022-11-01T18:54:08.217Z,13.52
2022-11-01T18:56:41.388Z,13.52
2022-11-01T18:59:33.151Z,13.54
2022-11-01T19:02:14.898Z,13.51
2022-11-01T19:04:43.668Z,13.53
2022-11-01T19:07:15.836Z,13.56
2022-11-01T19:09:54.551Z,13.56
2022-11-01T19:12:29.796Z,13.57
2022-11-01T19:15:20.552Z,13.58
2022-11-01T19:18:00.660Z,13.56
2022-11-01T19:20:34.858Z,13.55
2022-11-01T19:23:09.498Z,13.56
2022-11-01T19:25:37.501Z,13.60
2022-11-01T19:28:30.725Z,13.63
2022-11-01T19:31:08.048Z,13.63
2022-11-01T19:33:38.802Z,13.64
2022-11-01T19:39:25.045Z,13.62
2022-11-01T19:41:56.086Z,13.64
2022-11-01T19:44:25.594Z,13.64
2022-11-01T19:47:34.535Z,13.67
2022-11-01T19:50:09.201Z,13.60
2022-11-01T19:52:37.823Z,13.59
2022-11-01T19:55:36.661Z,13.58
2022-11-01T19:58:38.827Z,13.52
2022-11-01T20:01:08.972Z,13.51
2022-11-01T20:03:43.763Z,13.53
2022-11-01T20:06:17.450Z,13.55
2022-11-01T20:08:45.469Z,13.53
2022-11-01T20:11:13.537Z,13.53
2022-11-01T20:13:41.476Z,13.52
2022-11-01T20:16:09.470Z,13.51
2022-11-01T20:18:37.616Z,13.50
2022-11-01T20:21:06.540Z,13.49
2022-11-01T20:23:35.568Z,13.48
2022-11-01T20:26:04.347Z,13.49
2022-11-01T20:28:32.993Z,13.51
2022-11-01T20:31:01.145Z,13.51
2022-11-01T20:33:29.015Z,13.54
2022-11-01T20:35:56.957Z,13.58
2022-11-01T20:38:25.143Z,13.60
2022-11-01T20:40:53.324Z,13.60
2022-11-01T20:43:21.765Z,13.61
2022-11-01T20:45:49.960Z,13.60
2022-11-01T20:48:18.465Z,13.60
2022-11-01T20:50:46.372Z,13.60
2022-11-01T20:53:15.032Z,13.60
2022-11-01T20:55:43.330Z,13.61
2022-11-01T20:58:11.652Z,13.63
2022-11-01T21:00:39.984Z,13.63
2022-11-01T21:03:17.307Z,13.64
2022-11-01T21:05:47.413Z,13.62
2022-11-01T21:08:15.253Z,13.61
2022-11-01T21:10:43.794Z,13.61
2022-11-01T21:13:23.816Z,13.61
2022-11-01T21:15:53.701Z,13.61
2022-11-01T21:18:23.106Z,13.61
2022-11-01T21:20:51.013Z,13.62
2022-11-01T21:23:21.859Z,13.63
2022-11-01T21:25:57.856Z,13.64
2022-11-01T21:28:30.706Z,13.64
2022-11-01T21:31:14.266Z,13.64
2022-11-01T21:33:49.116Z,13.64
2022-11-01T21:36:20.232Z,13.65
2022-11-01T21:38:52.245Z,13.64
2022-11-01T21:41:32.899Z,13.63
2022-11-01T21:44:15.251Z,13.61
2022-11-01T21:46:48.775Z,13.58
2022-11-01T21:49:26.987Z,13.57
2022-11-01T21:51:57.835Z,13.52
2022-11-01T21:54:27.428Z,13.55
2022-11-01T21:56:56.971Z,13.57
2022-11-01T21:59:25.462Z,13.53
2022-11-01T22:01:55.006Z,13.52
2022-11-01T22:04:26.150Z,13.53
2022-11-01T22:06:57.753Z,13.53
2022-11-01T22:09:26.658Z,13.55
2022-11-01T22:11:55.046Z,13.55
2022-11-01T22:14:23.199Z,13.55
2022-11-01T22:16:51.749Z,13.56
2022-11-01T22:19:19.652Z,13.56
2022-11-01T22:21:47.545Z,13.56
2022-11-01T22:24:15.457Z,13.56
2022-11-01T22:26:43.622Z,13.56
2022-11-01T22:29:11.507Z,13.58
2022-11-01T22:31:39.354Z,13.61
2022-11-01T22:34:07.434Z,13.63
2022-11-01T22:36:36.694Z,13.65
2022-11-01T22:39:34.219Z,13.67
2022-11-01T22:42:02.378Z,13.64
2022-11-01T22:44:32.343Z,13.65
2022-11-01T22:47:03.039Z,13.65
2022-11-01T22:49:45.542Z,13.65
2022-11-01T22:52:19.292Z,13.64
2022-11-01T22:54:50.834Z,13.66
2022-11-01T22:57:24.342Z,13.67
2022-11-01T22:59:55.622Z,13.68
2022-11-01T23:02:42.544Z,13.70
2022-11-01T23:05:10.672Z,13.70
2022-11-01T23:07:54.065Z,13.72
2022-11-01T23:10:24.225Z,13.74
2022-11-01T23:13:28.466Z,13.76
2022-11-01T23:16:19.175Z,13.74
2022-11-01T23:18:47.119Z,13.73
2022-11-01T23:21:15.518Z,13.78
2022-11-01T23:23:45.493Z,13.81
2022-11-01T23:26:15.294Z,13.83
2022-11-01T23:28:51.777Z,13.86
2022-11-01T23:31:21.286Z,13.87
2022-11-01T23:33:50.776Z,13.90
2022-11-01T23:36:33.187Z,13.92
2022-11-01T23:39:12.061Z,13.92
2022-11-01T23:41:45.831Z,13.94
2022-11-01T23:44:19.543Z,13.95
2022-11-01T23:46:47.584Z,13.98
2022-11-01T23:49:22.059Z,14.00
2022-11-01T23:51:51.256Z,14.02
2022-11-01T23:54:40.081Z,14.03
2022-11-01T23:57:17.692Z,14.03
2022-11-01T23:59:47.230Z,14.04
